Terminal Aerodrome Forecast
Issued by NWS

Home | Current Version | Previous Version | Text Only | Print | Product List | Glossary On
Versions: 1 2 3 4 5 6 7 8 9 10 11 12 13 14 15 16 17 18 19
000
FTUS42 KMLB 300545
TAFISM
TAF
KISM 300545Z 3006/3106 06007KT P6SM VCSH SCT020 BKN100 OVC250
     FM301400 14010KT P6SM VCSH SCT020 BKN035 OVC060
     FM301800 14011KT 6SM -RA VCTS BKN030CB OVC100
      TEMPO 3018/3022 3SM TSRA BKN020CB OVC050
     FM310100 13007KT P6SM VCSH SCT020 BKN050 OVC250
      AMD NOT SKED TIL 301200=

USA.gov is the U.S. government's official web portal to all federal, state and local government web resources and services.